• Join FlightAware (Why Join?)
  • Login
  • US Flag 
07:26AM EDT


 

Airport Tracker/Info


-or-


 

Live Flight TrackerFlight Track Log ✈ SLI231 ✈ 25-Jun-2013 ✈ MMTC / TRC - MMMX / MEX

Flight Track Log - Related Links

Times and Time Zones

All times are in EDT time to prevent confusion due to time zone crossing. See the SLI231 flight status page for this flight to view local times or setup timezone preferences in your user account.

Time Position Orientation Groundspeed Altitude Reporting Facility
EDT Latitude Longitude Course Direction KTS MPH feet Rate Location/Type
03:55PM 25.1575 -103.1044 146° Southeast  Level Estimated
03:56PM 25.0753 -103.0434 146° Southeast  Level Estimated
03:57PM 24.9930 -102.9825 146° Southeast  Level Estimated
03:58PM 24.9107 -102.9217 146° Southeast  Level Estimated
03:59PM 24.8284 -102.8609 146° Southeast  Level Estimated
04:00PM 24.7461 -102.8002 146° Southeast  Level Estimated
04:01PM 24.6637 -102.7397 146° Southeast  Level Estimated
04:02PM 24.5813 -102.6792 146° Southeast  Level Estimated
04:03PM 24.4989 -102.6187 146° Southeast  Level Estimated
04:04PM 24.4165 -102.5584 146° Southeast  Level Estimated
04:05PM 24.3341 -102.4981 146° Southeast  Level Estimated
04:06PM 24.2516 -102.4379 146° Southeast  Level Estimated
04:07PM 24.1691 -102.3778 146° Southeast  Level Estimated
04:08PM 24.0866 -102.3178 146° Southeast  Level Estimated
04:09PM 24.0040 -102.2578 146° Southeast  Level Estimated
04:10PM 23.9214 -102.1980 146° Southeast  Level Estimated
04:11PM 23.8389 -102.1382 146° Southeast  Level Estimated
04:12PM 23.7562 -102.0784 147° Southeast  Level Estimated
04:13PM 23.6736 -102.0188 147° Southeast  Level Estimated
04:14PM 23.5909 -101.9592 147° Southeast  Level Estimated
04:15PM 23.5082 -101.8997 147° Southeast  Level Estimated
04:16PM 23.4255 -101.8403 147° Southeast  Level Estimated
04:17PM 23.3428 -101.7809 147° Southeast  Level Estimated
04:18PM 23.2601 -101.7216 147° Southeast  Level Estimated
04:19PM 23.1773 -101.6624 147° Southeast  Level Estimated
04:20PM 23.0945 -101.6033 147° Southeast  Level Estimated
04:21PM 23.0117 -101.5442 147° Southeast  Level Estimated
04:22PM 22.9288 -101.4853 147° Southeast  Level Estimated
04:23PM 22.8460 -101.4264 147° Southeast  Level Estimated
04:24PM 22.7631 -101.3675 147° Southeast  Level Estimated
04:25PM 22.6802 -101.3087 147° Southeast  Level Estimated
04:26PM 22.5973 -101.2500 147° Southeast  Level Estimated
04:27PM 22.5143 -101.1914 147° Southeast  Level Estimated
04:28PM 22.4313 -101.1329 147° Southeast  Level Estimated
04:29PM 22.3484 -101.0744 147° Southeast  Level Estimated
04:30PM 22.2653 -101.0159 147° Southeast  Level Estimated
04:31PM 22.1823 -100.9576 147° Southeast  Level Estimated
04:32PM 22.0993 -100.8993 147° Southeast  Level Estimated
04:33PM 22.0162 -100.8411 147° Southeast  Level Estimated
04:34PM 21.9331 -100.7830 147° Southeast  Level Estimated
04:35PM 21.8500 -100.7249 147° Southeast  Level Estimated
04:36PM 21.7669 -100.6669 147° Southeast  Level Estimated
04:37PM 21.6837 -100.6089 147° Southeast  Level Estimated
04:38PM 21.6005 -100.5511 147° Southeast  Level Estimated
04:39PM 21.5173 -100.4933 147° Southeast  Level Estimated
04:40PM 21.4341 -100.4355 147° Southeast  Level Estimated
04:41PM 21.3509 -100.3779 147° Southeast  Level Estimated
04:42PM 21.2677 -100.3202 147° Southeast  Level Estimated
04:43PM 21.1844 -100.2627 147° Southeast  Level Estimated
04:44PM 21.1011 -100.2052 147° Southeast  Level Estimated
04:45PM 21.0178 -100.1478 147° Southeast  Level Estimated
04:46PM 20.9345 -100.0905 147° Southeast  Level Estimated
04:47PM 20.8511 -100.0332 147° Southeast  Level Estimated
04:48PM 20.7677 -99.9760 147° Southeast  Level Estimated
04:49PM 20.6843 -99.9188 147° Southeast  Level Estimated
04:50PM 20.6009 -99.8617 147° Southeast  Level Estimated
04:51PM 20.5175 -99.8047 147° Southeast  Level Estimated
04:52PM 20.4341 -99.7477 147° Southeast  Level Estimated
04:53PM 20.3506 -99.6908 147° Southeast  Level Estimated
04:54PM 20.2671 -99.6339 147° Southeast  Level Estimated
04:55PM 20.1836 -99.5771 147° Southeast  Level Estimated
04:56PM 20.1001 -99.5204 147° Southeast  Level Estimated
04:57PM 20.0166 -99.4637 147° Southeast  Level Estimated
04:58PM 19.9330 -99.4071 148° Southeast  Level Estimated
04:59PM 19.8494 -99.3506 148° Southeast  Level Estimated
05:00PM 19.7659 -99.2941 148° Southeast  Level Estimated
05:01PM 19.6822 -99.2377 148° Southeast  Level Estimated
05:02PM 19.5986 -99.1813 148° Southeast  Level Estimated
05:03PM 19.5150 -99.1250 148° Southeast  Level Estimated
05:04PM 19.4363 -99.0721 148° Southeast  Level Estimated
05:05PM 19.4363 -99.0721 43° Northeast  Level Estimated
05:06PM 19.4363 -99.0721 43° Northeast  Level Estimated
05:07PM 19.4363 -99.0721 43° Northeast  Level Estimated
05:08PM 19.4363 -99.0721 43° Northeast  Level Estimated
05:09PM 19.4363 -99.0721 43° Northeast  Level Estimated
05:10PM 19.4363 -99.0721 43° Northeast  Level Estimated
05:11PM 19.4363 -99.0721 43° Northeast  Level Estimated
05:12PM 19.4363 -99.0721 43° Northeast  Level Estimated
05:13PM 19.4363 -99.0721 43° Northeast  Level Estimated
05:14PM 19.4363 -99.0721 43° Northeast  Level Estimated
05:15PM 19.4363 -99.0721 43° Northeast  Level Estimated
05:16PM 19.4363 -99.0721 43° Northeast  Level Estimated
05:17PM 19.4363 -99.0721 43° Northeast  Level Estimated
05:18PM 19.4363 -99.0721 43° Northeast  Level Estimated
05:19PM 19.4363 -99.0721 43° Northeast  Level Estimated
05:20PM 19.4363 -99.0721 43° Northeast  Level Estimated